Time;durP1;ratioP1;P1;durP2;ratioP2;P2;SDS_P1;SDS_P2;PMS_P1;PMS_P2;Temp;Humidity;BMP_temperature;BMP_pressure;BME280_temperature;BME280_humidity;BME280_pressure;Samples;Min_cycle;Max_cycle;Signal;HPM_P1;HPM_P2
2022/05/26 00:01:13;;;;;;;;;1.25;1.00;;;;;17.73;100.00;101925.75;5078997;27;45365;-85
2022/05/26 00:03:41;;;;;;;;;1.00;1.00;;;;;17.70;100.00;101917.81;5078743;28;45583;-85
2022/05/26 00:06:10;;;;;;;;;3.00;1.00;;;;;17.69;100.00;101917.72;5079074;27;45274;-83
2022/05/26 00:08:37;;;;;;;;;0.50;0.50;;;;;17.70;100.00;101917.81;5078972;28;45273;-85
2022/05/26 00:11:05;;;;;;;;;0.00;0.00;;;;;17.73;100.00;101923.13;5079036;27;45467;-84
2022/05/26 00:13:30;;;;;;;;;2.50;1.00;;;;;17.69;100.00;101921.25;5078857;28;45664;-85
2022/05/26 00:15:56;;;;;;;;;1.00;1.00;;;;;17.64;100.00;101922.81;5078109;28;46022;-84
2022/05/26 00:18:22;;;;;;;;;0.50;0.50;;;;;17.59;100.00;101927.91;5078420;27;45235;-84
2022/05/26 00:20:47;;;;;;;;;3.00;0.75;;;;;17.53;100.00;101925.09;5078206;28;45299;-84
2022/05/26 00:23:13;;;;;;;;;1.00;1.00;;;;;17.50;100.00;101922.34;5078567;27;45407;-84
2022/05/26 00:25:39;;;;;;;;;4.00;1.00;;;;;17.46;100.00;101936.16;5077825;28;45342;-84
2022/05/26 00:28:05;;;;;;;;;3.00;1.00;;;;;17.42;100.00;101923.84;5078445;27;45292;-85
2022/05/26 00:30:31;;;;;;;;;0.00;0.00;;;;;17.38;100.00;101921.94;5078457;27;45366;-82
2022/05/26 00:32:56;;;;;;;;;2.00;0.25;;;;;17.35;100.00;101927.97;5078300;28;45549;-84
2022/05/26 00:35:22;;;;;;;;;4.50;0.00;;;;;17.38;100.00;101929.78;5078198;28;45865;-83
2022/05/26 00:37:48;;;;;;;;;1.00;1.00;;;;;17.41;100.00;101935.13;5077699;28;45250;-85
2022/05/26 00:40:14;;;;;;;;;0.50;0.00;;;;;17.43;100.00;101926.50;5078177;28;45364;-85
2022/05/26 00:42:40;;;;;;;;;1.75;0.25;;;;;17.48;100.00;101932.78;5078171;28;45542;-85
2022/05/26 00:45:07;;;;;;;;;1.75;0.00;;;;;17.50;100.00;101940.69;5078067;27;45335;-84
2022/05/26 00:47:39;;;;;;;;;1.00;0.00;;;;;17.49;100.00;101934.53;5078241;27;45387;-84
2022/05/26 00:50:12;;;;;;;;;0.25;0.25;;;;;17.53;100.00;101934.66;5078577;27;45335;-85
2022/05/26 00:52:45;;;;;;;;;0.00;0.00;;;;;17.56;100.00;101940.88;5077916;28;45260;-84
2022/05/26 00:55:15;;;;;;;;;0.00;0.00;;;;;17.52;100.00;101944.25;5077948;28;45379;-85
2022/05/26 00:57:45;;;;;;;;;1.00;1.00;;;;;17.52;100.00;101945.97;5076800;28;45585;-84
2022/05/26 01:00:17;;;;;;;;;0.00;0.00;;;;;17.49;100.00;101938.91;5078478;28;45315;-84
2022/05/26 01:02:47;;;;;;;;;1.75;0.00;;;;;17.52;100.00;101943.34;5077932;27;45370;-85
2022/05/26 01:05:19;;;;;;;;;0.00;0.00;;;;;17.52;100.00;101941.63;5077603;28;45535;-84
2022/05/26 01:07:45;;;;;;;;;0.00;0.00;;;;;17.51;100.00;101941.56;5077467;28;45323;-84
2022/05/26 01:10:13;;;;;;;;;1.25;0.00;;;;;17.53;100.00;101951.28;5077913;28;45344;-85
2022/05/26 01:12:39;;;;;;;;;0.00;0.00;;;;;17.56;100.00;101942.63;5077913;28;45211;-84
2022/05/26 01:15:12;;;;;;;;;1.00;0.00;;;;;17.53;100.00;101945.13;5077951;28;45532;-85
2022/05/26 01:18:12;;;;;;;;;1.00;0.00;;;;;17.47;100.00;101943.19;5077107;28;45656;-84
2022/05/26 01:20:56;;;;;;;;;0.00;0.00;;;;;17.44;100.00;101954.47;5077287;28;45367;-83
2022/05/26 01:23:28;;;;;;;;;0.00;0.00;;;;;17.38;100.00;101955.97;5078371;27;45315;-84
2022/05/26 01:26:06;;;;;;;;;0.00;0.00;;;;;17.31;100.00;101961.00;5058709;28;46369;-84
2022/05/26 01:28:58;;;;;;;;;1.25;1.00;;;;;17.21;100.00;101965.84;5059294;28;45782;-85
2022/05/26 01:31:48;;;;;;;;;1.75;0.25;;;;;17.14;100.00;101965.63;5077411;28;45236;-84
2022/05/26 01:34:31;;;;;;;;;1.00;0.25;;;;;17.06;100.00;101961.81;5078342;28;45311;-85
2022/05/26 01:37:28;;;;;;;;;1.00;1.00;;;;;17.00;100.00;101958.97;5077533;28;45464;-84
2022/05/26 01:40:25;;;;;;;;;1.75;0.00;;;;;16.96;100.00;101955.38;5076806;28;45267;-83
2022/05/26 01:43:20;;;;;;;;;0.00;0.00;;;;;16.95;100.00;101956.19;5068739;27;46019;-85
2022/05/26 01:46:09;;;;;;;;;0.50;0.00;;;;;17.00;100.00;101957.28;5077210;28;45334;-82
2022/05/26 01:49:06;;;;;;;;;0.75;0.75;;;;;17.04;100.00;101959.97;5077300;28;45334;-84
2022/05/26 01:51:47;;;;;;;;;1.75;0.00;;;;;17.01;100.00;101948.56;5076791;28;45865;-84
2022/05/26 01:54:28;;;;;;;;;3.25;0.75;;;;;17.04;100.00;101957.38;5058788;28;45363;-84
2022/05/26 01:57:10;;;;;;;;;0.00;0.00;;;;;17.05;100.00;101946.06;5078693;28;45311;-82
2022/05/26 01:59:46;;;;;;;;;1.00;1.00;;;;;17.06;100.00;101956.59;5078369;27;45584;-84
2022/05/26 02:02:19;;;;;;;;;0.00;0.00;;;;;17.01;100.00;101964.25;5081864;28;45515;-84
2022/05/26 02:05:26;;;;;;;;;2.00;0.75;;;;;17.05;100.00;101957.44;5077005;28;45264;-85
2022/05/26 02:07:59;;;;;;;;;2.25;1.00;;;;;17.06;100.00;101956.59;5014442;28;45357;-85
2022/05/26 02:10:46;;;;;;;;;0.00;0.00;;;;;17.06;100.00;101960.94;5014467;28;45380;-83
2022/05/26 02:13:20;;;;;;;;;0.00;0.00;;;;;17.05;100.00;101957.44;5056922;27;45850;-78
2022/05/26 02:15:50;;;;;;;;;2.00;0.00;;;;;17.07;100.00;101947.91;5076612;28;45328;-84
2022/05/26 02:18:21;;;;;;;;;1.00;0.00;;;;;17.11;100.00;101964.63;5077088;28;45323;-85
2022/05/26 02:20:56;;;;;;;;;1.00;1.00;;;;;17.07;100.00;101965.34;5076158;28;45479;-85
2022/05/26 02:23:30;;;;;;;;;3.50;0.00;;;;;17.04;100.00;101970.44;5076531;28;45732;-85
2022/05/26 02:25:59;;;;;;;;;0.00;0.00;;;;;17.00;100.00;101965.13;5076652;28;45181;-85
2022/05/26 02:28:26;;;;;;;;;0.00;0.00;;;;;16.98;100.00;101971.13;5058626;27;45303;-83
2022/05/26 02:30:52;;;;;;;;;0.00;0.00;;;;;16.97;100.00;101964.09;5076317;27;46125;-84
2022/05/26 02:33:19;;;;;;;;;0.25;0.25;;;;;16.94;100.00;101966.63;5076294;28;45334;-85
2022/05/26 02:35:49;;;;;;;;;2.00;0.50;;;;;16.90;100.00;101976.00;5076333;28;45398;-85
2022/05/26 02:38:18;;;;;;;;;1.00;0.25;;;;;16.86;100.00;101975.03;5076650;27;45296;-84
2022/05/26 02:40:45;;;;;;;;;0.00;0.00;;;;;16.83;100.00;101974.94;5075931;28;45979;-84
2022/05/26 02:43:18;;;;;;;;;2.00;0.00;;;;;16.79;100.00;101973.00;5076026;27;45324;-81
2022/05/26 02:46:03;;;;;;;;;0.00;0.00;;;;;16.71;100.00;101977.06;5076025;27;45344;-84
2022/05/26 02:48:58;;;;;;;;;0.00;0.00;;;;;16.66;100.00;101978.59;5079608;28;45296;-81
2022/05/26 02:51:48;;;;;;;;;1.00;0.00;;;;;16.62;100.00;101980.22;5081073;28;45340;-85
2022/05/26 02:54:22;;;;;;;;;0.75;0.75;;;;;16.58;100.00;101972.19;5086482;28;45791;-83
2022/05/26 02:57:00;;;;;;;;;0.00;0.00;;;;;16.54;100.00;101969.44;5087521;28;45340;-85
2022/05/26 03:00:16;;;;;;;;;0.00;0.00;;;;;16.51;100.00;101965.84;5081475;28;45478;-84
2022/05/26 03:03:01;;;;;;;;;0.00;0.00;;;;;16.49;100.00;101972.72;5013988;28;45544;-85
2022/05/26 03:05:37;;;;;;;;;0.50;0.25;;;;;16.49;100.00;101967.50;5013644;28;45479;-86
2022/05/26 03:08:08;;;;;;;;;0.00;0.00;;;;;16.48;100.00;101976.16;5060138;28;45324;-85
2022/05/26 03:10:34;;;;;;;;;0.00;0.00;;;;;16.48;100.00;101964.00;5076668;28;45350;-85
2022/05/26 03:13:00;;;;;;;;;1.00;1.00;;;;;16.50;100.00;101967.56;5075537;28;46010;-84
2022/05/26 03:15:28;;;;;;;;;0.75;0.75;;;;;16.48;100.00;101974.44;5076674;28;45358;-83
2022/05/26 03:17:54;;;;;;;;;0.75;0.75;;;;;16.49;100.00;101977.94;5076050;28;45395;-85
2022/05/26 03:20:19;;;;;;;;;1.00;1.00;;;;;16.49;100.00;101983.16;5078351;27;45625;-84
2022/05/26 03:22:45;;;;;;;;;0.00;0.00;;;;;16.45;100.00;101982.16;5078834;27;45428;-85
2022/05/26 03:25:11;;;;;;;;;0.75;0.00;;;;;16.41;100.00;101969.81;5079281;28;45350;-85
2022/05/26 03:27:37;;;;;;;;;0.00;0.00;;;;;16.38;100.00;101983.63;5079319;27;45406;-82
2022/05/26 03:30:03;;;;;;;;;0.00;0.00;;;;;16.31;100.00;101983.34;5080002;28;45538;-83
2022/05/26 03:32:29;;;;;;;;;0.00;0.00;;;;;16.26;100.00;101967.47;5079117;27;45943;-84
2022/05/26 03:43:08;;;;;;;;;0.00;0.00;;;;;16.25;100.00;101977.03;5079075;27;45440;-84
2022/05/26 03:45:35;;;;;;;;;0.50;0.00;;;;;16.27;100.00;101982.31;5079371;27;45382;-82
2022/05/26 03:48:02;;;;;;;;;0.00;0.00;;;;;16.27;100.00;101979.72;5079463;28;45342;-82
2022/05/26 03:50:28;;;;;;;;;0.00;0.00;;;;;16.28;100.00;101980.63;5078946;28;45485;-83
2022/05/26 03:52:54;;;;;;;;;0.00;0.00;;;;;16.29;100.00;101979.78;5077982;27;45331;-82
2022/05/26 03:55:21;;;;;;;;;0.00;0.00;;;;;16.35;100.00;101991.38;5078991;28;45312;-75
2022/05/26 03:57:47;;;;;;;;;0.00;0.00;;;;;16.38;100.00;101994.09;5078785;27;45459;-77
2022/05/26 04:00:15;;;;;;;;;0.00;0.00;;;;;16.45;100.00;101999.59;5079292;27;45530;-77
2022/05/26 04:02:41;;;;;;;;;0.00;0.00;;;;;16.46;100.00;102001.38;5078551;27;46551;-84
2022/05/26 04:05:09;;;;;;;;;0.75;0.75;;;;;16.47;100.00;102003.13;5078941;28;45881;-78
2022/05/26 04:07:35;;;;;;;;;0.00;0.00;;;;;16.49;100.00;102006.69;5078545;28;45358;-79
2022/05/26 04:10:04;;;;;;;;;1.00;0.75;;;;;16.53;100.00;102012.09;5078384;28;45367;-79
2022/05/26 04:12:30;;;;;;;;;0.25;0.25;;;;;16.54;100.00;102008.66;5077391;27;47213;-79
2022/05/26 04:14:56;;;;;;;;;1.75;0.00;;;;;16.55;100.00;102010.44;5077475;28;45453;-78
2022/05/26 04:17:22;;;;;;;;;1.00;1.00;;;;;16.54;100.00;102016.50;5077602;28;45477;-79
2022/05/26 04:19:47;;;;;;;;;0.75;0.75;;;;;16.53;100.00;102022.56;5077595;28;45426;-78
2022/05/26 04:22:16;;;;;;;;;3.00;1.00;;;;;16.54;100.00;102019.13;5077511;28;46151;-78
2022/05/26 04:24:43;;;;;;;;;0.00;0.00;;;;;16.54;100.00;102016.50;5077448;28;45671;-77
2022/05/26 04:27:09;;;;;;;;;1.25;0.25;;;;;16.59;100.00;102015.81;5077828;28;45273;-79
2022/05/26 04:29:36;;;;;;;;;1.00;0.00;;;;;16.60;100.00;102020.22;5078472;28;45571;-79
2022/05/26 04:32:03;;;;;;;;;1.50;1.00;;;;;16.60;100.00;102018.47;5077280;27;46549;-79
2022/05/26 04:34:28;;;;;;;;;0.75;0.75;;;;;16.59;100.00;102026.28;5078127;28;45643;-80
2022/05/26 04:36:54;;;;;;;;;0.75;0.75;;;;;16.58;100.00;102025.38;5077946;28;45304;-80
2022/05/26 04:39:20;;;;;;;;;0.00;0.00;;;;;16.56;100.00;102025.31;5078596;28;45601;-80
2022/05/26 04:41:46;;;;;;;;;1.50;0.00;;;;;16.57;100.00;102028.84;5076203;28;45748;-80
2022/05/26 04:44:14;;;;;;;;;0.75;0.75;;;;;16.57;100.00;102026.22;5078045;28;45617;-79
2022/05/26 04:46:40;;;;;;;;;2.00;1.00;;;;;16.61;100.00;102035.06;5078070;28;45291;-79
2022/05/26 04:49:07;;;;;;;;;0.75;0.75;;;;;16.60;100.00;102033.28;5078721;28;45519;-80
2022/05/26 04:51:35;;;;;;;;;2.25;0.50;;;;;16.64;100.00;102035.16;5060041;28;47956;-79
2022/05/26 04:54:01;;;;;;;;;0.00;0.00;;;;;16.63;100.00;102038.66;5077576;28;45282;-78
2022/05/26 04:56:27;;;;;;;;;0.75;0.75;;;;;16.60;100.00;102033.28;5077793;27;45488;-79
2022/05/26 04:58:53;;;;;;;;;0.50;0.50;;;;;16.61;100.00;102038.56;5077850;27;45583;-78
2022/05/26 05:01:20;;;;;;;;;2.00;1.00;;;;;16.66;100.00;102049.22;5077628;28;45941;-78
2022/05/26 05:03:47;;;;;;;;;1.00;1.00;;;;;16.69;100.00;102052.81;5077524;27;45679;-78
2022/05/26 05:06:13;;;;;;;;;0.75;0.75;;;;;16.72;100.00;102052.09;5077713;27;45300;-79
2022/05/26 05:08:41;;;;;;;;;0.75;0.75;;;;;16.73;100.00;102052.97;5077624;27;45433;-78
2022/05/26 05:11:07;;;;;;;;;0.75;0.75;;;;;16.73;100.00;102055.56;5077909;27;45468;-77
2022/05/26 05:13:33;;;;;;;;;1.00;1.00;;;;;16.75;100.00;102056.53;5077777;27;45347;-79
2022/05/26 05:16:19;;;;;;;;;1.50;0.25;;;;;16.70;100.00;102056.34;5077567;28;45335;-78
2022/05/26 05:18:45;;;;;;;;;0.00;0.00;;;;;16.71;100.00;102060.75;5066052;28;45359;-78
2022/05/26 05:21:15;;;;;;;;;1.25;0.25;;;;;16.70;100.00;102053.75;5076630;27;45962;-79
2022/05/26 05:23:46;;;;;;;;;4.75;1.00;;;;;16.68;100.00;102055.41;5077239;27;45382;-79
2022/05/26 05:26:16;;;;;;;;;2.00;0.50;;;;;16.66;100.00;102057.97;5077534;28;45366;-79
2022/05/26 05:28:55;;;;;;;;;3.25;0.75;;;;;16.65;100.00;102055.25;5077449;28;45443;-79
2022/05/26 05:31:28;;;;;;;;;2.00;1.00;;;;;16.68;100.00;102064.13;5077410;27;45894;-80
2022/05/26 05:34:01;;;;;;;;;2.00;0.75;;;;;16.73;100.00;102066.03;5077079;27;45781;-80
2022/05/26 05:36:29;;;;;;;;;1.50;1.00;;;;;16.76;100.00;102066.16;5077912;28;45395;-79
2022/05/26 05:38:58;;;;;;;;;1.00;1.00;;;;;16.81;100.00;102064.59;5077341;28;45553;-79
2022/05/26 05:41:24;;;;;;;;;2.25;1.00;;;;;16.84;100.00;102062.13;5077067;28;45294;-79
2022/05/26 05:43:50;;;;;;;;;3.00;1.00;;;;;16.87;100.00;102063.13;5076514;28;45351;-77
2022/05/26 05:46:19;;;;;;;;;2.00;1.00;;;;;16.84;100.00;102069.97;5079196;27;45402;-81
2022/05/26 05:48:46;;;;;;;;;1.75;1.75;;;;;16.87;100.00;102073.59;5077313;28;45567;-80
2022/05/26 05:51:13;;;;;;;;;0.25;0.25;;;;;16.91;100.00;102073.72;5077016;28;46268;-81
2022/05/26 05:53:39;;;;;;;;;0.50;0.50;;;;;16.92;100.00;102076.38;5076340;27;45388;-79
2022/05/26 05:56:05;;;;;;;;;1.25;0.00;;;;;16.94;100.00;102082.59;5077263;28;45328;-81
2022/05/26 05:58:31;;;;;;;;;1.25;0.00;;;;;16.96;100.00;102080.03;5077063;28;45258;-80
2022/05/26 06:00:57;;;;;;;;;1.25;1.00;;;;;16.99;100.00;102086.31;5076278;28;45232;-80
2022/05/26 06:03:23;;;;;;;;;0.25;0.25;;;;;17.03;100.00;102092.53;5076505;27;45389;-81
2022/05/26 06:05:49;;;;;;;;;1.00;0.75;;;;;17.05;100.00;102089.97;5076554;27;45395;-80
2022/05/26 06:08:15;;;;;;;;;0.75;0.75;;;;;17.06;100.00;102097.00;5076852;28;45421;-80
2022/05/26 06:10:40;;;;;;;;;0.00;0.00;;;;;17.08;100.00;102104.06;5075250;28;45322;-83
2022/05/26 06:13:06;;;;;;;;;1.50;0.75;;;;;17.12;100.00;102103.38;5086784;28;45298;-83
2022/05/26 06:15:33;;;;;;;;;1.00;0.00;;;;;17.16;100.00;102110.50;5078266;28;45263;-81
2022/05/26 06:17:59;;;;;;;;;1.75;0.75;;;;;17.15;100.00;102108.72;5075715;28;45219;-80
2022/05/26 06:20:26;;;;;;;;;0.50;0.25;;;;;17.11;100.00;102108.56;5075245;28;46469;-79
2022/05/26 06:22:52;;;;;;;;;0.00;0.00;;;;;17.01;100.00;102118.63;5076056;27;45766;-82
2022/05/26 06:25:20;;;;;;;;;0.00;0.00;;;;;17.03;100.00;102113.47;5079158;27;45492;-80
2022/05/26 06:30:31;;;;;;;;;0.00;0.00;;;;;17.07;100.00;102115.38;5073769;28;45817;-80
2022/05/26 06:38:40;;;;;;;;;0.75;0.50;;;;;17.22;100.00;102124.66;5076516;27;45377;-82
2022/05/26 06:43:52;;;;;;;;;1.00;1.00;;;;;17.31;100.00;102131.16;5084954;28;45596;-93
2022/05/26 06:46:18;;;;;;;;;1.00;0.00;;;;;17.32;100.00;102132.03;5081380;27;45355;-84
2022/05/26 06:48:45;;;;;;;;;0.25;0.00;;;;;17.33;100.00;102144.28;5077787;27;45322;-80
2022/05/26 06:51:11;;;;;;;;;0.00;0.00;;;;;17.33;100.00;102134.69;5076326;28;46433;-81
2022/05/26 06:53:38;;;;;;;;;1.00;1.00;;;;;17.32;100.00;102147.72;5078177;27;45346;-84
2022/05/26 06:56:05;;;;;;;;;0.00;0.00;;;;;17.27;100.00;102147.56;5079457;28;45354;-88
2022/05/26 06:58:31;;;;;;;;;2.00;0.00;;;;;17.23;100.00;102155.22;5077616;28;45528;-85
2022/05/26 07:00:57;;;;;;;;;0.75;0.00;;;;;17.21;100.00;102154.28;5078202;28;46400;-86
2022/05/26 07:03:22;;;;;;;;;0.00;0.00;;;;;17.17;100.00;102151.53;5068230;27;45322;-86
2022/05/26 07:05:50;;;;;;;;;2.00;0.00;;;;;17.23;100.00;102161.34;5080020;28;45584;-79
2022/05/26 07:08:17;;;;;;;;;0.00;0.00;;;;;17.22;100.00;102161.28;5077429;28;45336;-81
2022/05/26 07:10:45;;;;;;;;;0.00;0.00;;;;;17.16;100.00;102160.25;5079614;28;46490;-84
2022/05/26 07:13:10;;;;;;;;;1.75;0.00;;;;;17.13;100.00;102154.88;5076743;28;45565;-82
2022/05/26 07:15:36;;;;;;;;;0.00;0.00;;;;;17.06;100.00;102152.81;5077143;27;45329;-82
2022/05/26 07:18:05;;;;;;;;;0.00;0.00;;;;;17.02;100.00;102161.41;5076417;28;45379;-81
2022/05/26 07:20:30;;;;;;;;;0.50;0.50;;;;;17.02;100.00;102170.13;5075858;28;46512;-83
2022/05/26 07:22:56;;;;;;;;;0.00;0.00;;;;;17.12;100.00;102173.09;5074749;28;45433;-82
2022/05/26 07:25:22;;;;;;;;;0.00;0.00;;;;;17.25;100.00;102177.13;5072360;28;45461;-78
2022/05/26 07:27:48;;;;;;;;;0.00;0.00;;;;;17.38;100.00;102170.63;5075146;27;45498;-81
2022/05/26 07:30:13;;;;;;;;;0.75;0.75;;;;;17.48;100.00;102171.06;5075047;28;45734;-81
2022/05/26 07:32:39;;;;;;;;;0.00;0.00;;;;;17.62;100.00;102168.97;5076144;27;45336;-77
2022/05/26 07:35:05;;;;;;;;;0.00;0.00;;;;;17.69;100.00;102179.66;5078009;28;45317;-83
2022/05/26 07:43:01;;;;;;;;;3.25;3.25;;;;;17.33;100.00;102201.88;5072729;28;45454;-80
2022/05/26 07:45:28;;;;;;;;;3.50;3.50;;;;;17.24;100.00;102204.13;5074887;28;45521;-82
2022/05/26 07:47:53;;;;;;;;;4.75;3.75;;;;;17.14;100.00;102202.84;5074756;28;45497;-81
2022/05/26 07:50:20;;;;;;;;;4.75;2.75;;;;;17.11;100.00;102208.88;5074629;28;46049;-82
2022/05/26 07:52:50;;;;;;;;;6.00;3.00;;;;;17.08;100.00;102218.31;5074660;28;45916;-82
2022/05/26 07:55:18;;;;;;;;;4.00;3.75;;;;;17.00;100.00;102226.78;5075940;28;45319;-82
2022/05/26 07:57:43;;;;;;;;;4.25;2.75;;;;;17.00;100.00;102215.38;5075618;28;45475;-80
2022/05/26 08:00:10;;;;;;;;;4.00;4.00;;;;;17.03;100.00;102220.75;5057106;28;46665;-79
2022/05/26 08:02:36;;;;;;;;;4.00;2.50;;;;;17.04;100.00;102221.63;5077134;27;45819;-82
2022/05/26 08:05:05;;;;;;;;;3.00;3.00;;;;;17.02;100.00;102224.19;5081382;27;45390;-84
2022/05/26 08:07:31;;;;;;;;;3.75;2.00;;;;;16.99;100.00;102229.31;5086314;28;45496;-85
2022/05/26 08:09:57;;;;;;;;;3.00;3.00;;;;;16.93;100.00;102227.28;5080596;27;46280;-85
2022/05/26 08:12:23;;;;;;;;;6.00;4.25;;;;;16.97;100.00;102236.19;5080136;28;45609;-91
2022/05/26 08:14:49;;;;;;;;;6.00;3.75;;;;;17.00;100.00;102233.72;5080264;28;45323;-82
2022/05/26 08:17:19;;;;;;;;;6.00;5.00;;;;;17.10;100.00;102225.41;5078922;27;45360;-84
2022/05/26 08:19:45;;;;;;;;;4.00;3.75;;;;;17.20;100.00;102228.38;5077984;28;45458;-83
2022/05/26 08:22:13;;;;;;;;;4.50;4.00;;;;;17.28;100.00;102219.09;5081884;28;45458;-86
2022/05/26 08:24:39;;;;;;;;;5.00;5.00;;;;;17.36;100.00;102228.19;5085184;28;45350;-80
2022/05/26 08:27:05;;;;;;;;;5.25;4.50;;;;;17.46;100.00;102229.41;5078943;28;45457;-87
2022/05/26 08:29:30;;;;;;;;;5.50;4.50;;;;;17.57;100.00;102232.47;5077871;27;45503;-85
2022/05/26 08:31:56;;;;;;;;;2.00;2.00;;;;;17.66;100.00;102231.91;5081815;27;45317;-84
2022/05/26 08:34:22;;;;;;;;;5.50;3.50;;;;;17.79;100.00;102231.56;5084410;28;45435;-83
2022/05/26 08:36:48;;;;;;;;;3.00;3.00;;;;;17.88;100.00;102234.50;5085049;28;45405;-80
2022/05/26 08:39:16;;;;;;;;;4.00;3.75;;;;;18.00;100.00;102228.88;5078372;27;45611;-84
2022/05/26 08:41:46;;;;;;;;;3.00;3.00;;;;;18.12;100.00;102230.19;5078561;28;46290;-88
2022/05/26 08:44:21;;;;;;;;;4.00;4.00;;;;;18.28;100.00;102235.13;5080785;27;45366;-86
2022/05/26 08:47:18;;;;;;;;;5.50;4.00;;;;;18.38;100.00;102229.38;5082369;28;45307;-86
2022/05/26 08:50:01;;;;;;;;;5.00;4.50;;;;;18.47;100.00;102233.13;5062876;27;45290;-89
2022/05/26 08:52:33;;;;;;;;;5.00;4.75;;;;;18.53;100.00;102238.63;5080782;27;45476;-87
2022/05/26 08:55:19;;;;;;;;;6.50;5.75;;;;;18.55;100.00;102240.44;5081679;27;45385;-86
2022/05/26 08:57:54;;;;;;;;;4.00;3.25;;;;;18.55;100.00;102245.69;5079360;28;45293;-83
2022/05/26 09:00:23;;;;;;;;;3.75;3.00;;;;;18.57;100.00;102245.78;5084129;27;45974;-87
2022/05/26 09:02:55;;;;;;;;;4.75;2.50;;;;;18.58;100.00;102254.50;5084488;27;45696;-80
2022/05/26 09:05:22;;;;;;;;;4.25;3.50;;;;;18.60;100.00;102256.34;5082128;27;45494;-86
2022/05/26 09:13:46;;;;;;;;;5.25;2.00;;;;;18.50;98.99;102252.53;5078643;28;45237;-83
2022/05/26 09:16:12;;;;;;;;;2.50;1.75;;;;;18.43;97.22;102263.63;5078696;27;45450;-87
2022/05/26 09:18:40;;;;;;;;;2.00;2.00;;;;;18.44;98.98;102254.91;5080922;27;45476;-81
2022/05/26 09:21:22;;;;;;;;;2.50;2.50;;;;;18.56;100.00;102257.09;5061204;27;46548;-85
2022/05/26 09:23:49;;;;;;;;;2.75;2.00;;;;;18.70;98.37;102258.44;5077594;27;45319;-86
2022/05/26 09:26:20;;;;;;;;;4.25;2.75;;;;;18.80;92.93;102269.25;5079261;28;45328;-86
2022/05/26 09:28:51;;;;;;;;;4.00;3.75;;;;;18.83;93.16;102264.13;5062575;28;45483;-87
2022/05/26 09:31:28;;;;;;;;;2.50;2.50;;;;;18.91;91.84;102265.25;5085529;28;46136;-85
2022/05/26 09:34:19;;;;;;;;;3.00;2.00;;;;;18.97;89.76;102273.41;5082831;28;45721;-85
2022/05/26 09:36:59;;;;;;;;;1.00;1.00;;;;;19.02;88.61;102279.66;5078769;27;45274;-84
2022/05/26 09:39:37;;;;;;;;;4.00;2.00;;;;;19.02;89.72;102270.91;5060079;28;45428;-86
2022/05/26 09:42:14;;;;;;;;;2.50;2.50;;;;;19.10;91.39;102287.81;5078844;28;46254;-83
2022/05/26 09:44:46;;;;;;;;;1.75;1.75;;;;;19.10;87.36;102281.69;5078188;28;45327;-85
2022/05/26 09:47:26;;;;;;;;;3.50;3.50;;;;;19.01;88.36;102277.00;5077983;27;45747;-86
2022/05/26 09:49:56;;;;;;;;;2.00;2.00;;;;;19.06;88.62;102280.66;5078872;28;45253;-87
2022/05/26 09:52:26;;;;;;;;;2.00;2.00;;;;;19.13;88.86;102281.75;5080297;27;47861;-85
2022/05/26 09:55:09;;;;;;;;;3.50;3.50;;;;;19.22;88.59;102286.44;5082013;28;45770;-84
2022/05/26 09:57:34;;;;;;;;;4.00;4.00;;;;;19.29;86.92;102288.41;5080808;28;45299;-79
2022/05/26 10:00:00;;;;;;;;;3.75;3.75;;;;;19.35;87.54;102291.25;5080216;28;45410;-81
2022/05/26 10:02:40;;;;;;;;;3.00;2.25;;;;;19.40;84.45;102292.28;5076365;27;46196;-77
2022/05/26 10:05:23;;;;;;;;;3.50;2.50;;;;;19.39;83.89;102300.13;5062918;28;45682;-79
2022/05/26 10:08:10;;;;;;;;;4.00;3.00;;;;;19.38;84.47;102301.88;5058134;28;45383;-83
2022/05/26 10:10:56;;;;;;;;;6.00;4.75;;;;;19.40;85.31;102299.28;5077231;27;45362;-78
2022/05/26 10:13:33;;;;;;;;;3.25;2.00;;;;;19.46;84.59;102310.88;5076060;28;46034;-78
2022/05/26 10:16:11;;;;;;;;;2.00;2.00;;;;;19.45;84.50;102302.94;5076189;28;45433;-81
2022/05/26 10:18:58;;;;;;;;;4.00;2.50;;;;;19.43;83.76;102302.88;5076601;27;45268;-80
2022/05/26 10:21:48;;;;;;;;;4.75;3.25;;;;;19.36;86.72;102297.38;5075493;27;45358;-82
2022/05/26 10:24:51;;;;;;;;;2.50;2.50;;;;;19.31;87.48;102305.13;5079624;27;45430;-79
2022/05/26 10:27:25;;;;;;;;;4.25;3.00;;;;;19.24;85.63;102300.50;5079486;28;45367;-82
2022/05/26 10:30:38;;;;;;;;;9.00;6.25;;;;;19.29;84.73;102310.31;5074780;27;45448;-84
2022/05/26 10:33:28;;;;;;;;;22.25;20.75;;;;;19.34;85.54;102302.59;5073401;28;45647;-82
2022/05/26 10:36:03;;;;;;;;;20.25;18.75;;;;;19.36;85.82;102298.28;5073700;28;45477;-84
2022/05/26 10:39:00;;;;;;;;;4.25;4.25;;;;;19.48;83.77;102300.41;5069171;28;45645;-83
2022/05/26 10:41:40;;;;;;;;;2.25;2.25;;;;;19.61;83.77;102296.41;5075488;28;45189;-81
2022/05/26 10:44:32;;;;;;;;;2.25;1.25;;;;;19.69;81.79;102301.91;5077032;27;45349;-84
2022/05/26 10:47:17;;;;;;;;;0.25;0.25;;;;;19.69;81.21;102289.69;5077791;28;45957;-85
2022/05/26 10:49:50;;;;;;;;;1.00;1.00;;;;;19.76;79.81;102296.03;5075325;27;45698;-86
2022/05/26 10:52:32;;;;;;;;;1.00;1.00;;;;;19.84;79.59;102298.88;5078435;27;45390;-82
2022/05/26 10:55:03;;;;;;;;;1.25;1.25;;;;;19.85;79.61;102298.94;5080845;28;45284;-82
2022/05/26 10:57:38;;;;;;;;;1.25;1.25;;;;;19.84;78.03;102299.78;5078868;28;46722;-85
2022/05/26 11:00:21;;;;;;;;;2.00;2.00;;;;;19.81;78.85;102294.41;5076537;28;45524;-84
2022/05/26 11:03:11;;;;;;;;;2.00;2.00;;;;;19.85;80.12;102300.66;5056230;28;45348;-83
2022/05/26 11:05:38;;;;;;;;;2.00;2.00;;;;;19.88;80.43;102301.66;5057184;28;45411;-80
2022/05/26 11:08:24;;;;;;;;;2.75;2.00;;;;;19.94;79.23;102298.34;5056041;28;45368;-81
2022/05/26 11:10:59;;;;;;;;;2.00;2.00;;;;;19.98;79.35;102308.09;5055879;28;45292;-84
2022/05/26 11:13:42;;;;;;;;;1.00;1.00;;;;;20.02;78.75;102302.09;5055587;28;45311;-81
2022/05/26 11:19:13;;;;;;;;;4.00;2.25;;;;;20.20;80.25;102295.59;5076693;28;45454;-83
2022/05/26 11:21:39;;;;;;;;;6.50;4.00;;;;;20.33;79.48;102289.84;5075782;28;45411;-78
2022/05/26 11:24:10;;;;;;;;;5.25;3.50;;;;;20.46;77.83;102290.19;5075359;27;45631;-78
2022/05/26 11:26:49;;;;;;;;;5.00;3.00;;;;;20.44;77.39;102298.00;5078539;27;45303;-77
2022/05/26 11:29:22;;;;;;;;;2.00;1.00;;;;;20.55;77.45;102285.16;5076598;28;46062;-78
2022/05/26 11:37:36;;;;;;;;;1.50;1.25;;;;;20.63;76.88;102275.72;5076216;28;45494;-79
2022/05/26 11:40:06;;;;;;;;;2.25;2.25;;;;;20.67;77.14;102282.88;5075348;28;45391;-79
2022/05/26 11:42:34;;;;;;;;;0.75;0.00;;;;;20.63;75.71;102280.09;5080199;28;45197;-79
2022/05/26 11:45:08;;;;;;;;;0.00;0.00;;;;;20.51;74.96;102271.03;5079298;27;45406;-79
2022/05/26 11:47:54;;;;;;;;;2.50;1.00;;;;;20.45;75.22;102262.97;5080087;27;45388;-78
2022/05/26 11:50:41;;;;;;;;;0.00;0.00;;;;;20.46;74.91;102261.25;5084543;28;46787;-78
2022/05/26 11:53:12;;;;;;;;;0.00;0.00;;;;;20.38;73.38;102266.28;5082497;27;45853;-79
2022/05/26 11:55:55;;;;;;;;;0.00;0.00;;;;;20.38;73.81;102264.53;5079494;28;45279;-77
2022/05/26 11:58:32;;;;;;;;;0.50;0.50;;;;;20.48;72.21;102276.22;5079751;27;45397;-79
2022/05/26 12:01:19;;;;;;;;;0.00;0.00;;;;;20.63;73.05;102272.19;5068582;28;47562;-79
2022/05/26 12:03:53;;;;;;;;;0.00;0.00;;;;;20.72;71.26;102270.72;5078904;27;45643;-80
2022/05/26 12:06:31;;;;;;;;;1.00;1.00;;;;;20.80;71.08;102268.31;5079003;27;45389;-79
2022/05/26 12:09:18;;;;;;;;;0.00;0.00;;;;;20.96;69.21;102268.69;5077694;27;45655;-78
2022/05/26 12:12:27;;;;;;;;;0.25;0.25;;;;;21.08;69.87;102262.84;5057872;28;47373;-78
2022/05/26 12:14:55;;;;;;;;;0.00;0.00;;;;;21.25;69.61;102258.88;5077060;27;45648;-80
2022/05/26 12:17:45;;;;;;;;;1.00;1.00;;;;;21.40;69.92;102252.19;5083267;28;45393;-82
2022/05/26 12:20:10;;;;;;;;;0.25;0.25;;;;;21.54;69.89;102265.66;5089328;27;45339;-80
2022/05/26 12:22:39;;;;;;;;;0.00;0.00;;;;;21.57;69.04;102257.84;5084153;27;45954;-81